Time;durP1;ratioP1;P1;durP2;ratioP2;P2;SDS_P1;SDS_P2;PMS_P1;PMS_P2;Temp;Humidity;BMP_temperature;BMP_pressure;BME280_temperature;BME280_humidity;BME280_pressure;Samples;Min_cycle;Max_cycle;Signal;HPM_P1;HPM_P2
2021/04/16 00:00:52;;;;;;;4.78;3.78;;;3.10;44.20;;;;;;6163962;23;20603;-78
2021/04/16 00:03:19;;;;;;;6.63;3.95;;;3.00;44.90;;;;;;6162610;23;20160;-78
2021/04/16 00:05:46;;;;;;;7.47;4.50;;;3.00;44.70;;;;;;6160870;23;20274;-79
2021/04/16 00:08:16;;;;;;;4.88;4.20;;;3.00;45.10;;;;;;6167104;23;20188;-78
2021/04/16 00:10:45;;;;;;;6.25;4.55;;;3.00;45.40;;;;;;6178304;23;20172;-78
2021/04/16 00:13:14;;;;;;;4.30;3.30;;;2.90;45.40;;;;;;6177403;23;20384;-79
2021/04/16 00:15:41;;;;;;;6.07;3.65;;;2.90;45.30;;;;;;6180129;23;20273;-79
2021/04/16 00:18:11;;;;;;;5.75;3.42;;;2.90;45.40;;;;;;6169356;23;20421;-78
2021/04/16 00:20:40;;;;;;;4.95;3.80;;;2.80;45.40;;;;;;6171997;23;20180;-78
2021/04/16 00:23:06;;;;;;;5.82;3.20;;;2.80;45.40;;;;;;6162587;23;20176;-78
2021/04/16 00:25:34;;;;;;;4.55;3.35;;;2.80;45.30;;;;;;6163011;23;20196;-78
2021/04/16 00:28:01;;;;;;;7.68;4.00;;;2.80;45.40;;;;;;6162666;23;20195;-78
2021/04/16 00:30:32;;;;;;;6.30;3.40;;;2.90;44.90;;;;;;6162507;23;20239;-79
2021/04/16 00:32:58;;;;;;;2.90;2.60;;;2.80;44.80;;;;;;6159379;23;20261;-79
2021/04/16 00:35:26;;;;;;;3.20;2.60;;;2.90;44.20;;;;;;6157673;23;20204;-78
2021/04/16 00:37:52;;;;;;;4.07;2.83;;;2.90;44.10;;;;;;6159708;23;20208;-78
2021/04/16 00:40:22;;;;;;;4.90;2.50;;;2.80;44.00;;;;;;6158189;23;20183;-78
2021/04/16 00:42:54;;;;;;;4.20;2.97;;;2.90;44.10;;;;;;6158083;23;20238;-78
2021/04/16 00:45:22;;;;;;;2.58;2.28;;;2.80;44.00;;;;;;6165271;23;20204;-78
2021/04/16 00:47:50;;;;;;;3.50;2.47;;;2.80;44.00;;;;;;6167437;23;20211;-77
2021/04/16 00:50:21;;;;;;;3.53;2.85;;;2.80;44.00;;;;;;6167668;23;20183;-78
2021/04/16 00:52:49;;;;;;;4.10;2.65;;;2.80;44.00;;;;;;6162389;23;20188;-77
2021/04/16 00:55:16;;;;;;;3.38;2.63;;;2.90;44.10;;;;;;6165747;23;20259;-78
2021/04/16 00:57:43;;;;;;;3.53;2.67;;;2.90;44.10;;;;;;6170399;23;20276;-78
2021/04/16 01:00:12;;;;;;;3.40;2.33;;;2.90;44.10;;;;;;6159078;23;20180;-77
2021/04/16 01:02:38;;;;;;;3.20;2.30;;;2.80;44.00;;;;;;6161699;23;20218;-79
2021/04/16 01:05:06;;;;;;;3.47;3.10;;;2.80;44.00;;;;;;6158488;23;20601;-77
2021/04/16 01:07:32;;;;;;;3.50;2.50;;;2.80;44.00;;;;;;6159474;23;20219;-79
2021/04/16 01:10:00;;;;;;;4.05;2.50;;;2.80;44.00;;;;;;6164819;23;20211;-78
2021/04/16 01:12:27;;;;;;;2.63;2.42;;;2.80;44.00;;;;;;6167898;23;20191;-78
2021/04/16 01:15:02;;;;;;;3.53;2.47;;;2.70;43.90;;;;;;6169347;23;20204;-78
2021/04/16 01:17:29;;;;;;;2.45;2.25;;;2.70;43.90;;;;;;6170333;23;20175;-80
2021/04/16 01:20:02;;;;;;;7.78;3.03;;;2.70;43.90;;;;;;6166352;23;20230;-78
2021/04/16 01:22:34;;;;;;;5.25;2.63;;;2.70;43.80;;;;;;6161645;23;20161;-79
2021/04/16 01:25:03;;;;;;;4.00;2.53;;;2.70;43.90;;;;;;6160457;23;20215;-78
2021/04/16 01:27:30;;;;;;;2.92;2.63;;;2.70;43.90;;;;;;6166695;23;20176;-78
2021/04/16 01:30:02;;;;;;;4.50;3.25;;;2.70;43.90;;;;;;6162138;23;20191;-77
2021/04/16 01:32:31;;;;;;;7.10;3.13;;;2.70;43.90;;;;;;6162283;23;20206;-77
2021/04/16 01:34:58;;;;;;;4.30;2.80;;;2.60;43.80;;;;;;6167386;23;20250;-78
2021/04/16 01:37:27;;;;;;;5.03;2.65;;;2.70;43.90;;;;;;6166189;23;20188;-78
2021/04/16 01:39:54;;;;;;;4.28;2.75;;;2.60;43.80;;;;;;6178214;23;20204;-78
2021/04/16 01:42:22;;;;;;;3.17;2.55;;;2.50;44.00;;;;;;6181444;23;20180;-78
2021/04/16 01:44:49;;;;;;;3.55;2.65;;;2.60;44.70;;;;;;6181250;23;20192;-79
2021/04/16 01:47:17;;;;;;;4.78;2.80;;;2.50;44.60;;;;;;6180457;23;20196;-77
2021/04/16 01:49:46;;;;;;;3.22;2.55;;;2.40;44.50;;;;;;6180856;23;20236;-82
2021/04/16 01:52:15;;;;;;;4.25;3.00;;;2.40;45.00;;;;;;6180944;23;20645;-79
2021/04/16 01:54:43;;;;;;;4.97;2.45;;;2.50;44.90;;;;;;6181069;23;20188;-79
2021/04/16 01:57:12;;;;;;;3.33;2.67;;;2.40;45.40;;;;;;6180861;23;20231;-78
2021/04/16 01:59:41;;;;;;;3.67;2.80;;;2.40;45.20;;;;;;6166404;23;20434;-78
2021/04/16 02:02:12;;;;;;;3.67;2.60;;;2.40;45.20;;;;;;6166448;23;20176;-79
2021/04/16 02:04:38;;;;;;;3.33;2.33;;;2.40;45.30;;;;;;6167320;23;20231;-78
2021/04/16 02:07:05;;;;;;;3.63;2.70;;;2.40;46.10;;;;;;6168291;23;20195;-77
2021/04/16 02:09:34;;;;;;;2.70;2.50;;;2.40;46.00;;;;;;6173201;23;20187;-77
2021/04/16 02:12:00;;;;;;;4.65;2.60;;;2.50;46.00;;;;;;6171224;23;20183;-77
2021/04/16 02:14:29;;;;;;;5.35;2.60;;;2.40;46.10;;;;;;6172600;23;20479;-77
2021/04/16 02:17:00;;;;;;;2.78;2.50;;;2.40;46.90;;;;;;6173932;23;20172;-77
2021/04/16 02:19:27;;;;;;;2.95;2.30;;;2.40;46.20;;;;;;6177780;23;20219;-78
2021/04/16 02:21:53;;;;;;;4.78;3.17;;;2.30;46.40;;;;;;6172655;23;20197;-78
2021/04/16 02:24:21;;;;;;;3.13;2.80;;;2.30;47.90;;;;;;6162983;23;20275;-79
2021/04/16 02:26:48;;;;;;;2.80;2.45;;;2.20;47.50;;;;;;6164680;23;20184;-78
2021/04/16 02:29:16;;;;;;;3.20;2.65;;;2.10;47.80;;;;;;6161513;23;20179;-77
2021/04/16 02:31:44;;;;;;;5.65;3.33;;;2.10;48.10;;;;;;6159593;23;20184;-80
2021/04/16 02:34:12;;;;;;;4.78;3.28;;;2.10;48.40;;;;;;6160037;23;20255;-79
2021/04/16 02:36:39;;;;;;;4.63;2.85;;;2.10;48.80;;;;;;6158817;23;20188;-78
2021/04/16 02:39:07;;;;;;;4.97;2.78;;;2.10;48.80;;;;;;6156879;23;20204;-78
2021/04/16 02:41:34;;;;;;;3.67;2.95;;;2.10;48.90;;;;;;6158438;23;20298;-78
2021/04/16 02:44:01;;;;;;;3.10;2.80;;;2.10;50.00;;;;;;6157752;23;20227;-79
2021/04/16 02:46:28;;;;;;;3.20;2.85;;;2.10;49.60;;;;;;6163258;23;20180;-78
2021/04/16 02:48:54;;;;;;;7.40;3.65;;;2.10;49.70;;;;;;6158760;23;20180;-78
2021/04/16 02:51:21;;;;;;;4.90;2.85;;;2.10;49.80;;;;;;6156767;23;20255;-79
2021/04/16 02:53:47;;;;;;;4.43;2.85;;;2.00;50.00;;;;;;6156582;23;20459;-78
2021/04/16 02:56:14;;;;;;;3.92;3.25;;;1.90;50.30;;;;;;6157064;23;20654;-78
2021/04/16 02:58:40;;;;;;;5.80;3.40;;;1.90;50.80;;;;;;6156632;23;20207;-77
2021/04/16 03:01:07;;;;;;;4.07;3.10;;;1.80;51.40;;;;;;6157261;23;20649;-78
2021/04/16 03:03:35;;;;;;;2.80;2.60;;;1.80;52.80;;;;;;6156920;23;20196;-78
2021/04/16 03:06:01;;;;;;;3.97;3.58;;;1.70;53.10;;;;;;6158002;23;20164;-78
2021/04/16 03:08:29;;;;;;;9.02;2.90;;;1.80;52.60;;;;;;6156580;23;20187;-78
2021/04/16 03:10:56;;;;;;;3.80;3.20;;;1.70;52.50;;;;;;6156653;23;20386;-77
2021/04/16 03:13:22;;;;;;;3.60;3.20;;;1.70;52.50;;;;;;6157354;23;20208;-77
2021/04/16 03:15:50;;;;;;;4.22;3.17;;;1.70;53.20;;;;;;6157205;23;20211;-78
2021/04/16 03:18:17;;;;;;;5.97;3.90;;;1.80;53.70;;;;;;6159163;23;20200;-79
2021/04/16 03:20:43;;;;;;;7.93;4.43;;;1.70;53.70;;;;;;6162801;23;20191;-78
2021/04/16 03:23:10;;;;;;;6.32;4.57;;;1.60;54.90;;;;;;6156520;23;20263;-78
2021/04/16 03:25:37;;;;;;;5.90;3.90;;;1.60;54.90;;;;;;6156552;23;20279;-79
2021/04/16 03:28:05;;;;;;;5.43;3.92;;;1.60;55.20;;;;;;6157212;23;20713;-78
2021/04/16 03:30:32;;;;;;;4.35;3.75;;;1.50;55.80;;;;;;6156906;23;20218;-78
2021/04/16 03:32:59;;;;;;;6.35;4.72;;;1.40;56.80;;;;;;6156916;23;20255;-77
2021/04/16 03:35:25;;;;;;;6.22;4.20;;;1.30;58.10;;;;;;6157021;23;20748;-77
2021/04/16 03:37:52;;;;;;;6.10;4.20;;;1.30;58.80;;;;;;6156763;23;20262;-78
2021/04/16 03:40:22;;;;;;;4.82;4.28;;;1.20;59.50;;;;;;6158839;23;20200;-79
2021/04/16 03:42:49;;;;;;;5.53;4.53;;;1.20;60.60;;;;;;6170854;23;20191;-78
2021/04/16 03:45:16;;;;;;;7.05;5.15;;;1.20;61.10;;;;;;6160448;23;20239;-77
2021/04/16 03:47:45;;;;;;;7.43;4.70;;;1.10;61.00;;;;;;6162201;23;20200;-77
2021/04/16 03:50:12;;;;;;;5.82;4.55;;;1.20;61.10;;;;;;6159411;23;20596;-79
2021/04/16 03:52:39;;;;;;;8.40;4.60;;;1.10;61.00;;;;;;6161200;23;20191;-77
2021/04/16 03:55:06;;;;;;;6.20;5.45;;;1.10;61.60;;;;;;6159509;23;20257;-78
2021/04/16 03:57:33;;;;;;;5.40;4.65;;;1.10;62.20;;;;;;6157918;23;20176;-78
2021/04/16 04:00:01;;;;;;;6.05;4.20;;;1.10;61.90;;;;;;6156692;23;20787;-79
2021/04/16 04:02:27;;;;;;;7.25;4.97;;;1.00;61.30;;;;;;6157416;23;20183;-77
2021/04/16 04:04:53;;;;;;;5.82;4.65;;;1.00;61.60;;;;;;6169874;23;20222;-77
2021/04/16 04:07:20;;;;;;;9.82;5.03;;;1.10;61.00;;;;;;6161615;23;20184;-79
2021/04/16 04:09:46;;;;;;;8.13;5.22;;;1.10;61.00;;;;;;6155978;23;20215;-77
2021/04/16 04:12:13;;;;;;;7.20;5.38;;;1.10;61.70;;;;;;6156181;23;20271;-78
2021/04/16 04:14:40;;;;;;;6.70;5.35;;;1.10;61.00;;;;;;6155916;23;20210;-78
2021/04/16 04:17:07;;;;;;;7.10;5.47;;;1.00;60.90;;;;;;6157350;23;20271;-77
2021/04/16 04:19:35;;;;;;;6.68;4.68;;;0.90;60.80;;;;;;6158336;23;20709;-78
2021/04/16 04:22:04;;;;;;;7.40;5.35;;;0.80;60.80;;;;;;6156999;23;20187;-77
2021/04/16 04:24:30;;;;;;;5.60;4.82;;;0.80;61.10;;;;;;6155763;23;20295;-78
2021/04/16 04:26:57;;;;;;;7.72;5.93;;;0.90;61.90;;;;;;6157149;23;20219;-78
2021/04/16 04:29:26;;;;;;;10.55;6.90;;;0.80;62.80;;;;;;6157935;23;20203;-79
2021/04/16 04:31:53;;;;;;;7.28;6.55;;;0.80;63.90;;;;;;6159496;23;20194;-79
2021/04/16 04:34:22;;;;;;;6.68;5.72;;;0.70;64.60;;;;;;6159851;23;20200;-78
2021/04/16 04:36:50;;;;;;;7.18;5.93;;;0.70;64.70;;;;;;6158441;23;20184;-78
2021/04/16 04:39:18;;;;;;;6.75;5.57;;;0.70;65.40;;;;;;6159363;23;20224;-78
2021/04/16 04:41:45;;;;;;;9.82;5.97;;;0.80;65.10;;;;;;6159739;23;20227;-78
2021/04/16 04:44:12;;;;;;;6.95;5.13;;;0.80;64.70;;;;;;6159933;23;20202;-79
2021/04/16 04:46:39;;;;;;;6.22;4.95;;;0.80;64.50;;;;;;6161628;23;20180;-78
2021/04/16 04:49:07;;;;;;;8.18;5.45;;;0.90;64.80;;;;;;6157852;23;20184;-78
2021/04/16 04:51:35;;;;;;;9.20;5.30;;;1.00;64.50;;;;;;6157545;23;20187;-79
2021/04/16 04:54:02;;;;;;;6.55;4.65;;;1.00;63.00;;;;;;6156695;23;20279;-78
2021/04/16 04:56:29;;;;;;;5.95;4.60;;;1.10;61.90;;;;;;6158149;23;20180;-78
2021/04/16 04:58:55;;;;;;;6.85;4.95;;;1.20;61.10;;;;;;6157706;23;20192;-78
2021/04/16 05:01:22;;;;;;;5.22;4.60;;;1.30;60.70;;;;;;6162703;23;20214;-79
2021/04/16 05:03:48;;;;;;;7.03;5.28;;;1.40;60.00;;;;;;6167380;23;20274;-78
2021/04/16 05:06:15;;;;;;;7.53;5.28;;;1.50;58.90;;;;;;6172684;23;20156;-79
2021/04/16 05:08:42;;;;;;;6.15;4.60;;;1.50;58.20;;;;;;6173422;23;20179;-79
2021/04/16 05:11:11;;;;;;;7.88;5.00;;;1.70;57.80;;;;;;6171592;23;20184;-79
2021/04/16 05:13:37;;;;;;;5.88;4.90;;;1.80;56.80;;;;;;6170180;23;20263;-78
2021/04/16 05:16:05;;;;;;;9.73;5.47;;;1.90;55.80;;;;;;6166955;23;20184;-78
2021/04/16 05:18:31;;;;;;;7.00;4.30;;;1.70;55.60;;;;;;6168544;23;20199;-78
2021/04/16 05:20:58;;;;;;;8.70;5.00;;;1.90;56.10;;;;;;6163295;23;20180;-79
2021/04/16 05:23:24;;;;;;;11.75;5.47;;;2.10;56.10;;;;;;6174735;23;20184;-78
2021/04/16 05:25:52;;;;;;;9.02;5.25;;;2.30;54.80;;;;;;6179454;23;20199;-79
2021/04/16 05:28:18;;;;;;;9.43;5.45;;;2.40;53.10;;;;;;6177968;23;20179;-77
2021/04/16 05:30:44;;;;;;;6.22;4.53;;;2.50;53.30;;;;;;6176805;23;20195;-78
2021/04/16 05:33:11;;;;;;;6.60;4.47;;;2.50;51.60;;;;;;6178213;23;20191;-78
2021/04/16 05:35:37;;;;;;;5.25;4.20;;;2.40;51.20;;;;;;6167993;23;20219;-78
2021/04/16 05:38:03;;;;;;;9.73;4.47;;;2.60;50.90;;;;;;6161166;23;20195;-78
2021/04/16 05:40:30;;;;;;;5.95;4.25;;;2.70;50.30;;;;;;6161137;23;20665;-78
2021/04/16 05:42:57;;;;;;;4.25;3.85;;;2.80;49.60;;;;;;6162844;23;20578;-77
2021/04/16 05:45:24;;;;;;;5.57;3.88;;;3.00;48.90;;;;;;6162413;23;20204;-78
2021/04/16 05:47:51;;;;;;;8.80;3.80;;;3.10;48.80;;;;;;6161186;23;20226;-78
2021/04/16 05:50:18;;;;;;;9.38;4.70;;;3.10;47.70;;;;;;6160181;23;20179;-78
2021/04/16 05:52:45;;;;;;;8.82;4.22;;;3.10;47.80;;;;;;6166391;23;20279;-81
2021/04/16 05:55:13;;;;;;;8.07;4.70;;;3.20;48.30;;;;;;6164334;23;20270;-79
2021/04/16 05:57:39;;;;;;;9.50;4.30;;;3.20;47.50;;;;;;6164162;23;20180;-81
2021/04/16 06:00:10;;;;;;;8.52;4.82;;;2.90;47.60;;;;;;6166072;23;20208;-81
2021/04/16 06:02:41;;;;;;;7.88;5.07;;;2.80;48.70;;;;;;6165709;23;20168;-79
2021/04/16 06:05:11;;;;;;;6.68;5.28;;;2.80;48.70;;;;;;6166968;23;20243;-80
2021/04/16 06:07:38;;;;;;;11.02;4.75;;;2.80;48.80;;;;;;6167846;23;20179;-80
2021/04/16 06:10:08;;;;;;;6.10;4.65;;;2.80;49.10;;;;;;6167192;23;20541;-80
2021/04/16 06:12:37;;;;;;;5.80;3.88;;;3.10;49.00;;;;;;6166473;23;20190;-80
2021/04/16 06:15:05;;;;;;;4.68;3.90;;;3.20;48.10;;;;;;6166624;23;20302;-79
2021/04/16 06:17:33;;;;;;;6.97;4.20;;;3.20;47.90;;;;;;6162911;23;20164;-80
2021/04/16 06:20:00;;;;;;;7.00;3.88;;;3.40;47.90;;;;;;6162410;23;20210;-79
2021/04/16 06:22:27;;;;;;;4.47;3.83;;;3.60;47.30;;;;;;6165188;23;20183;-81
2021/04/16 06:24:54;;;;;;;4.20;3.75;;;3.90;45.50;;;;;;6179038;23;20200;-82
2021/04/16 06:27:21;;;;;;;7.88;4.57;;;3.90;44.90;;;;;;6162611;23;20211;-82
2021/04/16 06:29:47;;;;;;;7.30;3.72;;;3.80;44.80;;;;;;6164871;23;20172;-82
2021/04/16 06:32:15;;;;;;;4.80;4.20;;;3.90;44.90;;;;;;6162388;23;20654;-81
2021/04/16 06:34:42;;;;;;;12.15;5.07;;;4.00;45.00;;;;;;6164000;23;20209;-82
2021/04/16 06:37:09;;;;;;;9.80;4.32;;;4.30;45.30;;;;;;6166550;23;20243;-81
2021/04/16 06:39:35;;;;;;;13.73;4.78;;;4.00;45.00;;;;;;6170580;23;20200;-81
2021/04/16 06:42:05;;;;;;;9.48;6.22;;;3.70;45.00;;;;;;6177064;23;20191;-81
2021/04/16 06:44:34;;;;;;;8.18;4.53;;;3.70;45.70;;;;;;6177507;23;20210;-80
2021/04/16 06:47:13;;;;;;;5.88;4.30;;;4.00;45.00;;;;;;6178900;23;20224;-81
2021/04/16 06:49:42;;;;;;;5.65;4.15;;;3.90;44.90;;;;;;6171007;23;20175;-80
2021/04/16 06:52:14;;;;;;;4.40;4.00;;;3.90;44.90;;;;;;6178529;23;20375;-80
2021/04/16 06:54:58;;;;;;;5.60;3.72;;;3.90;44.90;;;;;;6176795;23;20199;-80
2021/04/16 06:57:32;;;;;;;4.93;4.05;;;3.70;44.70;;;;;;6174528;23;20167;-81
2021/04/16 07:00:05;;;;;;;5.38;4.82;;;3.90;44.90;;;;;;6173634;23;20188;-84
2021/04/16 07:02:38;;;;;;;7.80;4.40;;;3.90;44.90;;;;;;6173700;23;20211;-81
2021/04/16 07:05:14;;;;;;;5.43;4.10;;;3.80;44.80;;;;;;6174850;23;20212;-81
2021/04/16 07:07:45;;;;;;;4.20;3.80;;;3.80;44.80;;;;;;6168075;23;20179;-80
2021/04/16 07:10:18;;;;;;;6.25;4.32;;;4.00;45.00;;;;;;6174695;23;20156;-81
2021/04/16 07:12:45;;;;;;;4.50;4.10;;;4.20;45.20;;;;;;6180548;23;20215;-80
2021/04/16 07:15:16;;;;;;;6.50;4.72;;;4.40;44.40;;;;;;6167829;23;20724;-78
2021/04/16 07:17:45;;;;;;;4.72;4.22;;;4.80;43.60;;;;;;6160861;23;20243;-79
2021/04/16 07:20:18;;;;;;;4.95;4.10;;;4.70;43.40;;;;;;6164488;23;20258;-78
2021/04/16 07:22:46;;;;;;;6.18;4.57;;;4.60;44.10;;;;;;6160843;23;20160;-77
2021/04/16 07:25:23;;;;;;;4.70;3.95;;;4.70;43.70;;;;;;6164848;23;20207;-79
2021/04/16 07:27:52;;;;;;;4.20;3.80;;;4.50;45.20;;;;;;6169155;23;20166;-79
2021/04/16 07:30:44;;;;;;;4.47;4.05;;;4.70;44.50;;;;;;6162697;23;20203;-80
2021/04/16 07:33:29;;;;;;;7.53;4.53;;;4.30;45.30;;;;;;6159507;23;20183;-81
2021/04/16 07:36:20;;;;;;;5.82;4.47;;;4.40;45.40;;;;;;6162277;23;20518;-80
2021/04/16 07:38:59;;;;;;;7.30;4.43;;;4.60;45.50;;;;;;6167513;23;20204;-80
2021/04/16 07:41:28;;;;;;;5.72;3.85;;;4.70;45.60;;;;;;6159017;23;20180;-81
2021/04/16 07:43:57;;;;;;;4.75;3.65;;;4.80;45.20;;;;;;6161425;23;20196;-81
2021/04/16 07:46:36;;;;;;;5.03;4.35;;;4.80;45.70;;;;;;6166479;23;20184;-79
2021/04/16 07:49:19;;;;;;;5.93;4.85;;;5.00;44.60;;;;;;6168152;23;20182;-79
2021/04/16 07:51:49;;;;;;;6.30;4.47;;;5.10;44.50;;;;;;6172256;23;20176;-80
2021/04/16 07:54:19;;;;;;;7.60;4.47;;;5.30;44.00;;;;;;6164760;23;20223;-76
2021/04/16 07:56:46;;;;;;;5.55;3.88;;;5.30;43.60;;;;;;6166773;23;20180;-79
2021/04/16 07:59:15;;;;;;;4.18;3.75;;;5.00;44.80;;;;;;6168708;23;20192;-80
2021/04/16 08:01:44;;;;;;;4.43;4.00;;;5.10;44.90;;;;;;6167362;23;20230;-81
2021/04/16 08:04:13;;;;;;;3.97;3.60;;;5.40;44.00;;;;;;6159448;23;20204;-80
2021/04/16 08:06:43;;;;;;;5.18;4.20;;;5.40;43.90;;;;;;6166979;23;20198;-79
2021/04/16 08:09:13;;;;;;;4.65;4.10;;;5.70;43.40;;;;;;6164099;23;20172;-80
2021/04/16 08:11:41;;;;;;;4.88;4.38;;;5.90;42.90;;;;;;6175397;23;20179;-80
2021/04/16 08:14:12;;;;;;;4.50;3.90;;;6.00;42.20;;;;;;6172205;23;20563;-80
2021/04/16 08:16:40;;;;;;;5.32;4.22;;;5.90;42.90;;;;;;6166289;23;20199;-80
2021/04/16 08:19:26;;;;;;;7.60;4.20;;;6.20;42.20;;;;;;6164401;23;20211;-79
2021/04/16 08:21:56;;;;;;;4.80;4.20;;;6.20;42.10;;;;;;6165635;23;20172;-80
2021/04/16 08:24:33;;;;;;;4.90;4.25;;;6.30;41.70;;;;;;6163285;23;20196;-80
2021/04/16 08:27:15;;;;;;;4.97;4.43;;;6.40;41.50;;;;;;6169711;23;20645;-81
2021/04/16 08:29:46;;;;;;;6.80;4.30;;;6.20;41.80;;;;;;6175443;23;20164;-79
2021/04/16 08:32:26;;;;;;;4.82;4.32;;;6.30;41.50;;;;;;6168249;23;20188;-81
2021/04/16 08:34:58;;;;;;;5.03;4.43;;;5.90;42.90;;;;;;6171385;23;20204;-79
2021/04/16 08:37:28;;;;;;;5.75;4.45;;;5.90;43.10;;;;;;6167908;23;20171;-81
2021/04/16 08:39:57;;;;;;;5.40;4.85;;;6.20;42.10;;;;;;6171057;23;20263;-78
2021/04/16 08:42:28;;;;;;;5.25;4.70;;;6.00;42.40;;;;;;6163774;23;20242;-79
2021/04/16 08:45:02;;;;;;;5.65;4.28;;;6.00;42.80;;;;;;6163504;23;20200;-80
2021/04/16 08:47:32;;;;;;;6.45;4.05;;;6.00;42.80;;;;;;6166950;23;20164;-80
2021/04/16 08:50:00;;;;;;;5.05;4.55;;;6.20;42.20;;;;;;6175667;23;20164;-83
2021/04/16 08:52:31;;;;;;;4.55;4.00;;;6.50;41.60;;;;;;6176275;23;20183;-80
2021/04/16 08:55:10;;;;;;;8.98;4.53;;;6.70;41.00;;;;;;6178783;23;20267;-82
2021/04/16 08:57:45;;;;;;;5.68;4.63;;;7.10;39.30;;;;;;6176669;23;20172;-80
2021/04/16 09:00:18;;;;;;;5.10;4.60;;;7.50;38.30;;;;;;6177687;23;20195;-81
2021/04/16 09:02:49;;;;;;;4.50;4.10;;;6.80;39.90;;;;;;6179430;23;20168;-81
2021/04/16 09:05:19;;;;;;;5.72;4.63;;;6.30;41.80;;;;;;6178024;23;20196;-79
2021/04/16 09:07:48;;;;;;;6.47;4.10;;;6.70;40.70;;;;;;6173295;23;20183;-80
2021/04/16 09:10:42;;;;;;;5.13;4.63;;;6.80;40.70;;;;;;6172382;23;20191;-80
2021/04/16 09:13:13;;;;;;;5.07;4.57;;;7.00;39.90;;;;;;6170508;23;20172;-82
2021/04/16 09:15:42;;;;;;;6.60;4.68;;;7.00;39.10;;;;;;6171510;23;20200;-81
2021/04/16 09:18:24;;;;;;;4.82;4.40;;;6.80;38.40;;;;;;6170108;23;20180;-81
2021/04/16 09:21:26;;;;;;;4.70;4.30;;;7.20;38.10;;;;;;6175343;23;20179;-79
2021/04/16 09:24:04;;;;;;;5.25;4.72;;;7.50;37.90;;;;;;6055030;23;20202;-81
2021/04/16 09:26:54;;;;;;;4.72;4.32;;;7.60;37.00;;;;;;6054008;23;20186;-82
2021/04/16 09:29:44;;;;;;;6.00;5.22;;;7.60;37.20;;;;;;6057629;23;20183;-80
2021/04/16 09:32:50;;;;;;;4.85;4.35;;;7.20;38.10;;;;;;6053163;23;20182;-81
2021/04/16 09:35:58;;;;;;;5.25;4.82;;;6.80;37.70;;;;;;6051093;23;20206;-79
2021/04/16 09:38:31;;;;;;;5.60;4.60;;;7.20;37.10;;;;;;6049387;23;20171;-81
2021/04/16 09:41:13;;;;;;;4.97;4.47;;;7.50;36.30;;;;;;6046998;23;20227;-80
2021/04/16 09:43:42;;;;;;;5.55;4.57;;;7.30;36.20;;;;;;6053529;23;20270;-79
2021/04/16 09:46:44;;;;;;;5.65;5.05;;;7.10;37.70;;;;;;6051744;23;20190;-79
2021/04/16 09:49:12;;;;;;;7.78;5.15;;;7.00;37.90;;;;;;6049727;23;20178;-79
2021/04/16 09:51:41;;;;;;;6.35;4.85;;;7.30;37.40;;;;;;6045479;23;20202;-80
2021/04/16 09:54:44;;;;;;;5.88;4.47;;;7.50;35.90;;;;;;6080418;23;20208;-79
2021/04/16 09:57:44;;;;;;;6.20;4.40;;;6.80;37.70;;;;;;6160375;23;20183;-79
2021/04/16 10:00:38;;;;;;;5.20;4.70;;;7.10;38.00;;;;;;6040956;23;20190;-78
2021/04/16 10:03:25;;;;;;;6.88;4.38;;;7.30;36.80;;;;;;6040035;23;20277;-79
2021/04/16 10:05:53;;;;;;;6.53;5.03;;;7.40;35.80;;;;;;6040106;23;20304;-79
2021/04/16 10:08:25;;;;;;;6.80;5.65;;;7.20;37.00;;;;;;6051243;23;20181;-79
2021/04/16 10:10:53;;;;;;;5.80;5.30;;;7.00;37.40;;;;;;6052125;23;20193;-78
2021/04/16 10:13:24;;;;;;;8.15;6.05;;;7.00;37.50;;;;;;6052993;23;20178;-78
2021/04/16 10:15:57;;;;;;;7.55;5.38;;;7.30;36.60;;;;;;6053152;23;20334;-78
2021/04/16 10:18:32;;;;;;;4.78;4.38;;;7.20;35.70;;;;;;6042586;23;20598;-80
2021/04/16 10:21:06;;;;;;;5.07;4.65;;;7.00;36.40;;;;;;6045423;23;20186;-79
2021/04/16 10:23:37;;;;;;;5.72;5.22;;;7.10;35.70;;;;;;6042619;23;20186;-80
2021/04/16 10:29:48;;;;;;;5.10;4.70;;;7.00;36.80;;;;;;6047661;23;20252;-78
2021/04/16 12:39:07;;;;;;;2.83;2.25;;;8.90;27.90;;;;;;6173134;23;20192;-78
2021/04/16 12:41:37;;;;;;;7.15;2.53;;;8.90;26.80;;;;;;6176398;23;20353;-77
2021/04/16 12:44:05;;;;;;;3.30;2.50;;;8.60;27.20;;;;;;6178058;23;20199;-78
2021/04/16 12:46:35;;;;;;;2.63;2.42;;;8.40;27.30;;;;;;6180744;23;20172;-81
2021/04/16 12:49:02;;;;;;;2.55;2.35;;;8.40;28.10;;;;;;6181184;23;20195;-79
2021/04/16 12:51:29;;;;;;;2.75;2.30;;;8.30;27.80;;;;;;6180438;23;20187;-80
2021/04/16 12:53:55;;;;;;;2.50;2.30;;;8.30;28.00;;;;;;6181590;23;20198;-81
2021/04/16 12:56:26;;;;;;;2.90;2.30;;;8.30;27.70;;;;;;6180197;23;20195;-80
2021/04/16 12:59:04;;;;;;;2.28;2.08;;;8.30;28.30;;;;;;6173734;23;20175;-80
2021/04/16 13:01:32;;;;;;;3.15;2.40;;;8.40;28.40;;;;;;6170989;23;20168;-81
2021/04/16 13:03:59;;;;;;;2.40;2.20;;;8.20;28.20;;;;;;6171050;23;20211;-80
2021/04/16 13:06:29;;;;;;;2.38;2.17;;;8.20;29.10;;;;;;6171848;23;20192;-77
2021/04/16 13:08:55;;;;;;;2.13;1.95;;;8.60;27.90;;;;;;6172191;23;20171;-80
2021/04/16 13:11:26;;;;;;;2.47;2.25;;;8.40;27.60;;;;;;6175064;23;20199;-81
2021/04/16 13:13:53;;;;;;;1.92;1.80;;;8.40;27.50;;;;;;6173063;23;20272;-81
2021/04/16 13:16:20;;;;;;;2.53;2.22;;;8.50;27.50;;;;;;6167630;23;20211;-80
2021/04/16 13:18:50;;;;;;;3.00;2.67;;;8.60;27.20;;;;;;6167539;23;20192;-81
2021/04/16 13:21:21;;;;;;;3.10;2.38;;;8.70;26.90;;;;;;6181874;23;20152;-82
2021/04/16 13:23:51;;;;;;;2.38;2.20;;;8.60;27.20;;;;;;6181583;23;20247;-78
2021/04/16 13:26:17;;;;;;;2.35;2.05;;;8.80;26.70;;;;;;6180320;23;20191;-82
2021/04/16 13:28:45;;;;;;;1.88;1.77;;;9.00;26.60;;;;;;6181352;23;20267;-80
2021/04/16 13:31:12;;;;;;;2.40;2.20;;;8.60;27.20;;;;;;6181666;23;20155;-84
2021/04/16 13:33:41;;;;;;;2.00;1.90;;;8.60;27.50;;;;;;6181239;23;20191;-80
2021/04/16 13:36:13;;;;;;;3.75;2.08;;;8.50;27.20;;;;;;6180228;23;20210;-79
2021/04/16 13:38:40;;;;;;;1.92;1.73;;;8.30;27.60;;;;;;6178843;23;20231;-80
2021/04/16 13:41:07;;;;;;;2.17;1.98;;;8.60;27.20;;;;;;6172031;23;20204;-81
2021/04/16 13:43:35;;;;;;;3.05;1.98;;;8.90;26.80;;;;;;6167408;23;20226;-80
2021/04/16 13:46:02;;;;;;;2.35;2.15;;;9.10;26.50;;;;;;6168199;23;20180;-80
2021/04/16 13:48:28;;;;;;;3.97;1.65;;;9.10;26.80;;;;;;6168312;23;20176;-80
2021/04/16 13:50:55;;;;;;;2.47;2.08;;;8.90;27.30;;;;;;6175355;23;20234;-80
2021/04/16 13:53:23;;;;;;;2.78;1.90;;;9.00;26.50;;;;;;6173979;23;20207;-79
2021/04/16 13:55:50;;;;;;;2.05;1.88;;;8.80;26.20;;;;;;6169982;23;20179;-79
2021/04/16 13:58:17;;;;;;;1.88;1.40;;;9.00;25.90;;;;;;6171445;23;20200;-80
2021/04/16 14:00:46;;;;;;;1.75;1.65;;;8.80;26.70;;;;;;6172431;23;20194;-79
2021/04/16 14:03:16;;;;;;;2.40;2.20;;;8.80;26.80;;;;;;6176774;23;20217;-82
2021/04/16 14:05:49;;;;;;;2.28;2.08;;;8.60;26.80;;;;;;6179786;23;20219;-81
2021/04/16 14:08:24;;;;;;;2.40;1.90;;;8.80;26.90;;;;;;6177776;23;20187;-82
2021/04/16 14:10:51;;;;;;;6.30;1.80;;;9.00;26.70;;;;;;6178967;23;20164;-84
2021/04/16 14:13:17;;;;;;;2.60;1.75;;;9.10;26.60;;;;;;6177257;23;20278;-79
2021/04/16 14:15:44;;;;;;;1.90;1.80;;;8.70;27.00;;;;;;6162644;23;20259;-79
2021/04/16 14:18:26;;;;;;;2.00;1.90;;;8.50;27.30;;;;;;6163069;23;20487;-82
2021/04/16 14:20:52;;;;;;;1.70;1.60;;;8.50;27.40;;;;;;6161590;23;20196;-80
2021/04/16 14:23:21;;;;;;;2.33;2.00;;;8.60;27.60;;;;;;6160016;23;20649;-81
2021/04/16 14:25:48;;;;;;;4.80;1.95;;;8.70;27.40;;;;;;6161338;23;20176;-79
2021/04/16 14:28:17;;;;;;;2.33;2.13;;;8.80;27.40;;;;;;6161388;23;20190;-80
2021/04/16 14:30:44;;;;;;;2.30;2.10;;;8.50;27.70;;;;;;6169051;23;20251;-80
2021/04/16 14:33:14;;;;;;;2.15;2.05;;;8.60;28.00;;;;;;6169315;23;20321;-81
2021/04/16 14:35:41;;;;;;;2.53;2.33;;;8.70;27.40;;;;;;6170452;23;20203;-80
2021/04/16 14:38:08;;;;;;;1.63;1.52;;;8.70;27.30;;;;;;6174473;23;20195;-80
2021/04/16 14:40:36;;;;;;;1.90;1.80;;;8.70;27.20;;;;;;6179284;23;20184;-79
2021/04/16 14:43:04;;;;;;;1.90;1.70;;;8.60;27.30;;;;;;6179364;23;20175;-81
2021/04/16 14:45:33;;;;;;;1.50;1.40;;;8.50;27.30;;;;;;6179283;23;20204;-80
2021/04/16 14:48:02;;;;;;;1.65;1.55;;;8.50;27.60;;;;;;6179083;23;20172;-81
2021/04/16 14:50:30;;;;;;;2.45;2.00;;;8.30;27.80;;;;;;6178577;23;20156;-80
2021/04/16 14:53:01;;;;;;;1.60;1.50;;;8.20;28.00;;;;;;6175843;23;20195;-80
2021/04/16 14:55:30;;;;;;;2.47;1.52;;;8.00;28.80;;;;;;6172762;23;20219;-79
2021/04/16 14:57:58;;;;;;;1.88;1.77;;;8.10;29.10;;;;;;6166887;23;20537;-81
2021/04/16 15:00:28;;;;;;;1.33;1.30;;;8.00;29.10;;;;;;6164388;23;20642;-81
2021/04/16 15:02:55;;;;;;;1.90;1.80;;;8.10;29.10;;;;;;6166187;23;20172;-81
2021/04/16 15:05:23;;;;;;;1.55;1.38;;;8.10;29.10;;;;;;6165918;23;20218;-79
2021/04/16 15:07:52;;;;;;;2.22;2.00;;;8.00;29.10;;;;;;6166095;23;20176;-81
2021/04/16 15:10:23;;;;;;;1.95;1.80;;;8.10;29.10;;;;;;6171649;23;20190;-83
2021/04/16 15:12:50;;;;;;;1.60;1.48;;;7.90;29.70;;;;;;6169241;23;20186;-79
2021/04/16 15:15:25;;;;;;;1.50;1.40;;;7.70;30.40;;;;;;6170897;23;20235;-78
2021/04/16 15:17:54;;;;;;;3.08;1.50;;;7.80;30.50;;;;;;6177989;23;20171;-78
2021/04/16 15:20:22;;;;;;;1.55;1.45;;;7.90;30.00;;;;;;6179147;23;20230;-78
2021/04/16 15:22:49;;;;;;;2.50;1.95;;;7.90;30.10;;;;;;6175404;23;20438;-79